Time;durP1;ratioP1;P1;durP2;ratioP2;P2;SDS_P1;SDS_P2;PMS_P1;PMS_P2;Temp;Humidity;BMP_temperature;BMP_pressure;BME280_temperature;BME280_humidity;BME280_pressure;Samples;Min_cycle;Max_cycle;Signal;HPM_P1;HPM_P2
2022/01/09 00:04:38;;;;;;;11.23;9.70;;;;;;;-2.55;86.71;98514.72;10465674;28;20509;-71
2022/01/09 00:09:43;;;;;;;10.60;9.50;;;;;;;-2.65;87.60;98513.06;10466564;28;20048;-72
2022/01/09 00:14:44;;;;;;;10.25;8.50;;;;;;;-2.72;86.92;98497.66;10464517;28;20103;-71
2022/01/09 00:19:46;;;;;;;8.98;8.07;;;;;;;-2.66;87.79;98495.91;10464214;28;20102;-71
2022/01/09 00:24:48;;;;;;;9.27;7.97;;;;;;;-2.28;86.71;98487.16;10464063;28;20506;-71
2022/01/09 00:29:50;;;;;;;8.25;7.45;;;;;;;-2.43;85.76;98469.25;10465544;28;20124;-72
2022/01/09 00:34:52;;;;;;;8.90;7.53;;;;;;;-2.33;85.72;98460.59;10464284;28;20048;-71
2022/01/09 00:39:53;;;;;;;7.65;6.85;;;;;;;-2.33;85.91;98451.16;10446279;28;20421;-72
2022/01/09 00:44:55;;;;;;;8.80;6.85;;;;;;;-2.40;86.28;98436.59;10469563;28;20136;-73
2022/01/09 00:49:56;;;;;;;9.43;7.13;;;;;;;-2.22;85.52;98435.66;10472154;28;20055;-73
2022/01/09 00:54:58;;;;;;;6.78;6.07;;;;;;;-2.29;85.51;98413.41;10469550;28;20044;-72
2022/01/09 01:00:00;;;;;;;6.45;5.85;;;;;;;-2.40;85.52;98415.19;10470167;28;20053;-73
2022/01/09 01:05:03;;;;;;;8.65;6.22;;;;;;;-2.13;85.72;98401.28;10468118;28;20384;-70
2022/01/09 01:10:05;;;;;;;6.88;6.13;;;;;;;-2.11;85.27;98392.69;10466097;28;20494;-71
2022/01/09 01:15:08;;;;;;;12.38;6.35;;;;;;;-2.37;86.35;98399.72;10464752;28;20037;-70
2022/01/09 01:20:11;;;;;;;7.88;5.82;;;;;;;-2.00;86.01;98381.44;10464937;28;20414;-69
2022/01/09 01:25:13;;;;;;;7.95;6.45;;;;;;;-1.76;83.18;98364.94;10461440;28;20135;-71
2022/01/09 01:30:15;;;;;;;6.43;5.43;;;;;;;-1.68;82.40;98360.53;10462833;28;20084;-69
2022/01/09 01:35:17;;;;;;;7.10;6.40;;;;;;;-1.73;81.88;98347.72;10444750;28;20512;-70
2022/01/09 01:40:19;;;;;;;7.68;5.78;;;;;;;-1.61;81.58;98329.56;10462847;28;20067;-70
2022/01/09 01:45:21;;;;;;;8.65;6.25;;;;;;;-1.59;81.31;98319.25;10462503;28;20043;-71
2022/01/09 01:50:22;;;;;;;6.55;5.82;;;;;;;-1.78;82.32;98316.84;10462461;28;20045;-69
2022/01/09 01:55:24;;;;;;;8.43;6.20;;;;;;;-1.82;82.83;98306.59;10461680;28;20064;-70
2022/01/09 02:00:25;;;;;;;6.22;5.55;;;;;;;-1.94;82.78;98291.28;10460076;28;20514;-69
2022/01/09 02:05:27;;;;;;;6.80;5.95;;;;;;;-1.95;82.65;98287.81;10458954;28;20433;-70
2022/01/09 02:10:29;;;;;;;6.68;5.90;;;;;;;-1.89;83.55;98284.34;10457200;28;20044;-70
2022/01/09 02:15:34;;;;;;;5.82;5.32;;;;;;;-1.92;83.15;98271.50;10460034;28;20033;-71
2022/01/09 02:20:37;;;;;;;6.75;5.43;;;;;;;-1.75;83.25;98251.59;10458997;28;20048;-70
2022/01/09 02:25:39;;;;;;;7.18;5.38;;;;;;;-1.37;80.94;98245.13;10457243;28;20056;-71
2022/01/09 02:30:42;;;;;;;6.85;5.60;;;;;;;-1.49;80.63;98245.28;10458454;28;20103;-71
2022/01/09 02:35:48;;;;;;;6.82;4.90;;;;;;;-1.30;79.99;98246.75;10458762;28;20051;-70
2022/01/09 02:40:52;;;;;;;6.70;5.68;;;;;;;-1.33;79.77;98244.19;10458093;28;20410;-71
2022/01/09 02:46:06;;;;;;;5.72;4.70;;;;;;;-1.27;79.06;98245.00;10464784;28;20040;-70
2022/01/09 02:51:16;;;;;;;4.63;4.15;;;;;;;-1.34;79.82;98243.34;10467048;28;20095;-69
2022/01/09 02:56:22;;;;;;;5.20;4.35;;;;;;;-1.43;80.29;98230.56;10466248;28;20076;-71
2022/01/09 03:01:23;;;;;;;4.78;3.80;;;;;;;-1.49;81.21;98230.66;10464416;28;20556;-71
2022/01/09 03:06:25;;;;;;;5.55;4.53;;;;;;;-1.45;81.51;98229.75;10464969;28;20048;-70
2022/01/09 03:11:27;;;;;;;5.93;3.80;;;;;;;-1.35;79.99;98221.03;10464236;28;20456;-71
2022/01/09 03:16:28;;;;;;;5.35;3.97;;;;;;;-1.18;79.89;98220.81;10463572;28;20048;-70
2022/01/09 03:21:30;;;;;;;5.10;3.83;;;;;;;-1.22;79.65;98218.28;10463205;28;20525;-70
2022/01/09 03:26:31;;;;;;;4.25;3.20;;;;;;;-1.26;80.04;98204.59;10463552;28;20383;-70
2022/01/09 03:31:33;;;;;;;4.13;3.55;;;;;;;-0.96;78.28;98184.41;10464165;28;20056;-70
2022/01/09 03:36:34;;;;;;;5.63;3.55;;;;;;;-0.80;77.41;98172.94;10465444;28;20036;-71
2022/01/09 03:41:36;;;;;;;4.88;3.70;;;;;;;-0.62;75.80;98172.69;10464425;28;20045;-71
2022/01/09 03:46:38;;;;;;;12.35;3.63;;;;;;;-0.84;76.86;98159.28;10463211;28;20041;-71
2022/01/09 03:51:41;;;;;;;4.47;3.88;;;;;;;-0.84;75.92;98150.66;10462858;28;20118;-70
2022/01/09 03:56:42;;;;;;;5.22;3.85;;;;;;;-0.76;75.09;98148.81;10461352;28;20414;-71
2022/01/09 04:01:45;;;;;;;4.55;3.92;;;;;;;-0.72;75.07;98154.78;10462781;28;20463;-70
2022/01/09 04:06:49;;;;;;;4.85;3.72;;;;;;;-0.62;74.37;98139.13;10461417;28;20494;-71
2022/01/09 04:11:55;;;;;;;5.43;4.50;;;;;;;-0.61;74.49;98137.41;10462156;28;20037;-71
2022/01/09 04:16:59;;;;;;;4.55;3.90;;;;;;;-0.69;74.20;98129.78;10464013;28;20090;-71
2022/01/09 04:22:01;;;;;;;4.18;3.17;;;;;;;-0.53;73.55;98133.81;10462189;28;20068;-71
2022/01/09 04:27:02;;;;;;;3.97;3.05;;;;;;;-0.60;73.32;98146.84;10461639;28;20414;-70
2022/01/09 04:32:05;;;;;;;5.32;3.45;;;;;;;-0.73;74.03;98141.03;10462469;28;20044;-70
2022/01/09 04:37:06;;;;;;;5.20;4.07;;;;;;;-0.70;73.69;98135.81;10462570;28;20399;-70
2022/01/09 04:42:09;;;;;;;6.65;4.05;;;;;;;-0.86;74.06;98116.31;10461535;28;20045;-71
2022/01/09 04:47:15;;;;;;;8.15;4.53;;;;;;;-0.76;73.36;98120.44;10443880;28;20068;-70
2022/01/09 04:52:21;;;;;;;5.15;3.72;;;;;;;-0.54;71.78;98124.34;10460892;28;20049;-70
2022/01/09 04:57:22;;;;;;;5.88;3.97;;;;;;;-0.73;71.74;98129.84;10461573;28;20049;-71
2022/01/09 05:02:24;;;;;;;5.70;5.15;;;;;;;-0.82;72.78;98133.44;10461925;28;20049;-70
2022/01/09 05:07:26;;;;;;;4.75;3.63;;;;;;;-0.56;72.16;98128.69;10459527;28;20490;-70
2022/01/09 05:12:27;;;;;;;5.03;3.90;;;;;;;-0.87;73.92;98132.69;10442611;28;20060;-71
2022/01/09 05:17:29;;;;;;;4.82;3.28;;;;;;;-0.81;73.42;98135.97;10459680;28;20044;-71
2022/01/09 05:22:31;;;;;;;6.97;4.43;;;;;;;-0.71;73.32;98135.84;10459290;28;20048;-71
2022/01/09 05:27:34;;;;;;;5.18;3.80;;;;;;;-0.75;73.42;98124.75;10460463;28;20047;-72
2022/01/09 05:32:36;;;;;;;5.63;4.25;;;;;;;-0.69;73.69;98119.47;10461820;28;20049;-72
2022/01/09 05:37:38;;;;;;;5.53;4.95;;;;;;;-0.87;74.20;98122.34;10465111;28;20067;-71
2022/01/09 05:42:40;;;;;;;4.90;3.78;;;;;;;-0.68;74.08;98123.72;10463870;28;20128;-70
2022/01/09 05:47:42;;;;;;;5.22;4.18;;;;;;;-0.49;72.72;98110.50;10460054;28;20045;-71
2022/01/09 05:52:44;;;;;;;5.05;3.85;;;;;;;-0.63;73.21;98113.34;10460859;28;20037;-71
2022/01/09 05:57:45;;;;;;;4.40;3.97;;;;;;;-0.51;72.84;98106.22;10461711;28;20044;-71
2022/01/09 06:02:48;;;;;;;4.60;3.67;;;;;;;-0.72;73.85;98114.34;10461707;28;20041;-74
2022/01/09 06:07:52;;;;;;;5.38;3.88;;;;;;;-0.65;73.14;98108.22;10463405;28;20037;-73
2022/01/09 06:12:53;;;;;;;5.65;4.35;;;;;;;-0.63;73.94;98103.00;10461353;28;20395;-72
2022/01/09 06:17:55;;;;;;;5.88;4.30;;;;;;;-0.53;73.83;98104.56;10462975;28;20051;-72
2022/01/09 06:22:57;;;;;;;5.57;4.65;;;;;;;-0.59;74.43;98110.66;10470858;28;20565;-72
2022/01/09 06:28:00;;;;;;;5.35;4.35;;;;;;;-0.68;75.00;98109.97;10470058;28;20049;-72
2022/01/09 06:33:02;;;;;;;5.75;4.60;;;;;;;-0.52;74.75;98108.84;10468501;28;20045;-72
2022/01/09 06:38:04;;;;;;;4.75;4.25;;;;;;;-0.54;75.21;98108.00;10467229;28;20049;-73
2022/01/09 06:43:06;;;;;;;5.38;4.40;;;;;;;-0.34;74.77;98102.50;10467753;28;20120;-72
2022/01/09 06:48:08;;;;;;;4.60;4.10;;;;;;;-0.27;73.73;98106.63;10468073;28;20457;-73
2022/01/09 06:53:12;;;;;;;5.03;4.50;;;;;;;-0.15;72.89;98109.00;10468054;28;20044;-73
2022/01/09 06:58:18;;;;;;;5.72;4.65;;;;;;;-0.19;72.19;98111.66;10467039;28;20041;-72
2022/01/09 07:03:22;;;;;;;4.57;4.20;;;;;;;-0.31;72.04;98113.63;10467657;28;20045;-73
2022/01/09 07:08:26;;;;;;;5.18;4.45;;;;;;;-0.34;72.53;98108.50;10467759;28;20052;-72
2022/01/09 07:13:28;;;;;;;8.40;4.63;;;;;;;-0.24;71.63;98111.75;10468947;28;20055;-72
2022/01/09 07:18:30;;;;;;;4.10;3.53;;;;;;;-0.14;71.57;98115.84;10466991;28;20401;-72
2022/01/09 07:23:32;;;;;;;5.32;4.30;;;;;;;-0.18;71.39;98116.78;10466357;28;20100;-72
2022/01/09 07:28:33;;;;;;;5.32;4.82;;;;;;;-0.17;72.02;98115.94;10466509;28;20048;-73
2022/01/09 07:33:35;;;;;;;5.57;4.45;;;;;;;-0.07;70.84;98122.59;10467100;28;20100;-72
2022/01/09 07:38:36;;;;;;;4.43;4.03;;;;;;;-0.12;71.60;98106.34;10467087;28;20045;-73
2022/01/09 07:43:39;;;;;;;4.63;4.15;;;;;;;-0.04;71.21;98104.47;10466569;28;20056;-73
2022/01/09 07:48:40;;;;;;;4.68;4.22;;;;;;;-0.07;72.50;98114.00;10466682;28;20090;-73
2022/01/09 07:53:42;;;;;;;4.18;3.78;;;;;;;-0.13;72.99;98106.41;10465660;28;20133;-73
2022/01/09 07:58:44;;;;;;;4.40;3.63;;;;;;;0.06;72.09;98104.28;10465848;28;20079;-76
2022/01/09 08:03:45;;;;;;;4.95;4.38;;;;;;;0.14;72.13;98103.25;10467643;28;20041;-74
2022/01/09 08:08:48;;;;;;;3.72;3.42;;;;;;;0.11;72.81;98105.88;10466613;28;20487;-77
2022/01/09 08:13:50;;;;;;;4.47;3.63;;;;;;;0.03;73.39;98114.66;10465692;28;20494;-77
2022/01/09 08:18:52;;;;;;;4.65;4.25;;;;;;;0.13;73.26;98126.50;10464505;28;20430;-76
2022/01/09 08:23:54;;;;;;;4.20;3.78;;;;;;;0.07;73.05;98124.91;10465161;28;20120;-76
2022/01/09 08:28:56;;;;;;;3.88;3.47;;;;;;;0.35;72.52;98121.75;10465248;28;20041;-76
2022/01/09 08:33:57;;;;;;;4.78;4.28;;;;;;;0.35;72.52;98120.00;10465908;28;20048;-76
2022/01/09 08:38:59;;;;;;;3.95;3.55;;;;;;;0.37;72.43;98126.00;10467521;28;20506;-76
2022/01/09 08:44:02;;;;;;;4.25;3.85;;;;;;;0.20;74.00;98130.69;10467341;28;20040;-77
2022/01/09 08:49:05;;;;;;;4.15;3.80;;;;;;;0.32;73.37;98125.25;10466857;28;20045;-77
2022/01/09 08:54:07;;;;;;;3.70;3.40;;;;;;;0.27;74.19;98127.09;10467430;28;20041;-72
2022/01/09 08:59:09;;;;;;;4.47;3.50;;;;;;;0.53;72.39;98126.50;10462039;28;20045;-72
2022/01/09 09:04:18;;;;;;;4.65;3.63;;;;;;;0.48;73.28;98126.63;10462930;28;20056;-73
2022/01/09 09:09:20;;;;;;;3.80;3.40;;;;;;;0.53;73.93;98128.25;10460851;28;20052;-73
2022/01/09 09:14:22;;;;;;;3.45;3.15;;;;;;;0.72;72.89;98129.56;10462239;28;20052;-74
2022/01/09 09:19:24;;;;;;;4.00;3.58;;;;;;;0.63;73.98;98129.78;10460942;28;20041;-73
2022/01/09 09:24:25;;;;;;;3.40;3.10;;;;;;;0.73;73.52;98134.69;10461653;28;20430;-73
2022/01/09 09:29:27;;;;;;;3.83;3.28;;;;;;;0.63;73.98;98143.53;10461306;28;20461;-73
2022/01/09 09:34:29;;;;;;;4.07;3.22;;;;;;;0.69;74.00;98143.41;10460119;28;20102;-73
2022/01/09 09:39:35;;;;;;;3.80;3.40;;;;;;;0.65;74.36;98148.66;10461447;28;20037;-73
2022/01/09 09:44:37;;;;;;;3.33;3.03;;;;;;;0.83;73.75;98150.84;10460238;28;20047;-73
2022/01/09 09:49:39;;;;;;;7.35;3.13;;;;;;;1.10;72.93;98145.91;10459475;28;20073;-72
2022/01/09 09:54:42;;;;;;;3.70;3.20;;;;;;;0.90;74.07;98151.56;10460010;28;20045;-73
2022/01/09 09:59:44;;;;;;;3.85;2.90;;;;;;;1.18;73.28;98142.25;10457417;28;20044;-73
2022/01/09 10:05:05;;;;;;;3.35;3.05;;;;;;;1.33;72.78;98146.22;10457151;28;20619;-74
2022/01/09 10:10:17;;;;;;;3.25;2.95;;;;;;;1.35;72.81;98152.19;10476454;28;20049;-72
2022/01/09 10:15:20;;;;;;;4.28;3.35;;;;;;;1.33;73.28;98145.34;10439260;28;20052;-73
2022/01/09 10:20:24;;;;;;;4.15;3.75;;;;;;;1.27;73.82;98142.03;10462797;28;20053;-74
2022/01/09 10:25:33;;;;;;;4.25;3.30;;;;;;;1.65;71.63;98147.13;10439865;28;20402;-73
2022/01/09 10:30:39;;;;;;;3.88;3.53;;;;;;;1.50;72.82;98156.13;10492474;28;20148;-72
2022/01/09 10:35:42;;;;;;;3.75;3.42;;;;;;;1.76;70.69;98155.47;10457372;28;20114;-74
2022/01/09 10:40:49;;;;;;;4.90;4.38;;;;;;;1.82;71.21;98155.31;10456333;28;20045;-73
2022/01/09 10:45:59;;;;;;;4.80;4.40;;;;;;;1.92;71.33;98167.13;10457273;28;20051;-72
2022/01/09 10:51:03;;;;;;;3.92;3.63;;;;;;;2.35;69.71;98163.34;10456235;28;20099;-73
2022/01/09 10:56:13;;;;;;;3.83;3.53;;;;;;;2.23;70.68;98171.47;10457521;28;20060;-73
2022/01/09 11:01:20;;;;;;;3.80;3.50;;;;;;;2.46;70.15;98169.06;10457320;28;20048;-73
2022/01/09 11:06:25;;;;;;;4.03;3.28;;;;;;;2.60;69.70;98170.41;10519832;22;20071;-81
2022/01/09 11:16:41;;;;;;;3.75;3.45;;;;;;;2.48;69.70;98176.81;10531017;28;20041;-83
2022/01/09 11:21:56;;;;;;;3.88;3.58;;;;;;;2.46;70.23;98176.84;10530104;28;20382;-82
2022/01/09 11:27:14;;;;;;;4.07;3.78;;;;;;;2.64;69.60;98180.66;10531292;28;20044;-82
2022/01/09 11:32:31;;;;;;;3.90;3.60;;;;;;;2.57;69.87;98191.22;10527786;28;20048;-83
2022/01/09 11:37:55;;;;;;;3.60;3.30;;;;;;;2.81;68.79;98187.94;10527926;28;20096;-82
2022/01/09 11:43:09;;;;;;;3.63;3.28;;;;;;;2.74;69.02;98194.19;10527418;28;20041;-82
2022/01/09 11:48:12;;;;;;;4.63;4.22;;;;;;;2.67;68.95;98208.25;10537835;28;20480;-82
2022/01/09 11:53:14;;;;;;;5.22;4.82;;;;;;;2.50;70.27;98206.97;10520496;28;20048;-83
2022/01/09 11:58:20;;;;;;;5.45;5.05;;;;;;;2.44;71.34;98208.91;10525806;28;20059;-82
2022/01/09 12:03:27;;;;;;;5.03;4.63;;;;;;;2.80;69.83;98212.19;10519670;28;20044;-81
2022/01/09 12:08:53;;;;;;;5.15;4.65;;;;;;;2.57;70.91;98219.75;10548855;22;20413;-73
2022/01/09 12:13:54;;;;;;;4.82;4.43;;;;;;;2.49;71.22;98220.00;10505935;28;20066;-72
2022/01/09 12:18:56;;;;;;;5.82;5.32;;;;;;;2.98;69.47;98227.19;10504197;28;20044;-72
2022/01/09 12:24:36;;;;;;;4.55;4.15;;;;;;;2.65;71.17;98229.03;10503655;28;20041;-72
2022/01/09 12:29:46;;;;;;;5.47;4.97;;;;;;;2.71;71.45;98243.59;10504004;28;20066;-73
2022/01/09 12:35:11;;;;;;;2.70;2.30;;;;;;;3.19;69.63;98246.47;10503048;28;20064;-73
2022/01/09 12:40:17;;;;;;;5.13;4.72;;;;;;;2.87;70.26;98257.81;10503435;28;20044;-72
2022/01/09 12:45:21;;;;;;;6.30;5.80;;;;;;;3.08;70.75;98263.25;10502603;28;20120;-72
2022/01/09 12:50:37;;;;;;;5.03;4.63;;;;;;;3.49;67.87;98272.38;10502417;28;20040;-73
2022/01/09 12:55:58;;;;;;;8.55;4.03;;;;;;;3.18;69.91;98280.25;10503023;28;20079;-73
2022/01/09 13:01:03;;;;;;;5.00;4.60;;;;;;;2.93;71.72;98288.78;10501114;28;20486;-74
2022/01/09 13:06:08;;;;;;;1.85;1.63;;;;;;;3.38;71.37;98293.50;10484322;28;20503;-73
2022/01/09 13:11:19;;;;;;;1.30;1.20;;;;;;;3.48;71.70;98297.50;10504404;28;20037;-74
2022/01/09 13:16:33;;;;;;;1.75;1.48;;;;;;;3.77;71.04;98303.56;10504575;28;20127;-74
2022/01/09 13:21:43;;;;;;;1.77;1.38;;;;;;;3.82;70.86;98306.84;10487570;28;20486;-73
2022/01/09 13:26:51;;;;;;;1.38;1.27;;;;;;;3.76;71.51;98309.63;10500434;28;20041;-73
2022/01/09 13:32:02;;;;;;;1.52;1.25;;;;;;;3.46;73.48;98327.03;10500381;28;20119;-73
2022/01/09 13:37:08;;;;;;;3.92;2.50;;;;;;;3.53;73.61;98326.78;10503112;28;20051;-73
2022/01/09 13:42:12;;;;;;;2.35;2.13;;;;;;;3.38;75.40;98345.44;10468236;28;20143;-74
2022/01/09 13:47:16;;;;;;;3.10;2.80;;;;;;;3.30;77.37;98347.41;10502826;28;20127;-74
2022/01/09 13:52:24;;;;;;;4.25;2.95;;;;;;;3.10;79.17;98354.91;10502262;28;20437;-74
2022/01/09 13:57:28;;;;;;;5.95;4.82;;;;;;;3.03;80.44;98372.41;10502742;28;20549;-74
2022/01/09 14:02:41;;;;;;;3.38;3.08;;;;;;;2.94;81.10;98372.69;10466231;28;20045;-74
2022/01/09 14:08:04;;;;;;;4.03;3.63;;;;;;;2.85;82.53;98380.72;10520239;28;20040;-74
2022/01/09 14:13:25;;;;;;;3.30;3.00;;;;;;;2.76;83.00;98392.19;10543282;28;20068;-75
2022/01/09 14:18:29;;;;;;;3.83;3.42;;;;;;;2.57;84.56;98391.84;10525077;28;20089;-74
2022/01/09 14:23:34;;;;;;;4.05;3.75;;;;;;;2.66;85.50;98408.91;10543163;28;20173;-74
2022/01/09 14:28:36;;;;;;;4.78;4.20;;;;;;;2.65;85.24;98418.41;10524725;28;20089;-75
2022/01/09 14:33:40;;;;;;;1.30;1.20;;;;;;;2.87;84.78;98433.41;10524031;28;20048;-75
2022/01/09 14:38:54;;;;;;;1.60;1.40;;;;;;;2.88;84.73;98432.53;10513690;28;20037;-73
2022/01/09 14:43:58;;;;;;;1.20;0.85;;;;;;;3.07;84.88;98435.50;10491697;28;20086;-74
2022/01/09 14:49:05;;;;;;;1.48;1.00;;;;;;;2.92;86.17;98448.00;10493251;28;20048;-74
2022/01/09 14:54:07;;;;;;;0.80;0.80;;;;;;;2.67;87.45;98455.56;10511590;28;20052;-74
2022/01/09 14:59:08;;;;;;;2.28;1.27;;;;;;;2.79;86.85;98462.19;10499389;28;20048;-75
2022/01/09 15:04:11;;;;;;;1.08;0.70;;;;;;;2.72;86.74;98474.44;10514600;28;20541;-74
2022/01/09 15:09:14;;;;;;;1.05;0.75;;;;;;;2.65;87.09;98480.66;10494834;28;20040;-72
2022/01/09 15:14:16;;;;;;;0.70;0.70;;;;;;;2.69;86.96;98481.44;10491673;28;20152;-74
2022/01/09 15:19:20;;;;;;;1.58;0.80;;;;;;;2.56;87.44;98493.00;10492732;28;20075;-72
2022/01/09 15:24:22;;;;;;;1.27;0.60;;;;;;;2.44;88.65;98502.81;10492523;28;20048;-72
2022/01/09 15:29:24;;;;;;;0.93;0.82;;;;;;;2.55;88.03;98514.66;10511171;28;20068;-74
2022/01/09 15:34:25;;;;;;;0.88;0.85;;;;;;;2.45;88.23;98530.44;10507911;28;20049;-73
2022/01/09 15:39:27;;;;;;;0.90;0.70;;;;;;;2.40;88.55;98528.84;10508296;28;20076;-73
2022/01/09 15:44:29;;;;;;;1.35;0.80;;;;;;;2.28;89.62;98546.38;10490546;28;20047;-73
2022/01/09 15:49:31;;;;;;;0.80;0.70;;;;;;;2.29;89.87;98547.22;10507447;28;20055;-72
2022/01/09 15:54:33;;;;;;;0.80;0.80;;;;;;;2.18;90.49;98554.41;10507417;28;20048;-73
2022/01/09 15:59:35;;;;;;;2.03;1.38;;;;;;;2.21;90.38;98567.28;10507628;28;20068;-73
2022/01/09 16:04:37;;;;;;;14.50;10.10;;;;;;;2.01;91.59;98570.31;10507027;28;20052;-73
2022/01/09 16:09:38;;;;;;;1.52;1.10;;;;;;;2.01;91.58;98585.84;10507799;28;20040;-73
2022/01/09 16:14:42;;;;;;;1.55;1.20;;;;;;;1.95;91.98;98602.38;10507306;28;20063;-72
2022/01/09 16:19:50;;;;;;;;;;;;;;;1.88;93.00;98592.16;10489996;28;20486;-72
2022/01/09 16:25:02;;;;;;;0.90;0.90;;;;;;;1.96;92.56;98605.81;10506374;28;19928;-73
2022/01/09 16:30:08;;;;;;;1.40;1.27;;;;;;;1.77;93.33;98607.91;10488447;28;20037;-71
2022/01/09 16:35:10;;;;;;;1.30;1.20;;;;;;;1.88;93.16;98618.94;10503880;28;20040;-72
2022/01/09 16:40:12;;;;;;;3.05;1.20;;;;;;;1.73;93.82;98629.59;10504898;28;20092;-71
2022/01/09 16:45:14;;;;;;;1.77;1.15;;;;;;;1.72;94.34;98646.84;10503742;28;20118;-72
2022/01/09 16:50:16;;;;;;;1.40;1.30;;;;;;;1.84;93.87;98648.38;10505234;28;20040;-71
2022/01/09 16:55:18;;;;;;;1.58;1.48;;;;;;;1.88;93.56;98655.19;10487825;28;20078;-72
2022/01/09 17:00:20;;;;;;;2.53;2.22;;;;;;;1.89;94.32;98672.44;10503164;28;20044;-72
2022/01/09 17:05:22;;;;;;;2.33;2.03;;;;;;;1.92;94.31;98679.31;10502580;28;20127;-71
2022/01/09 17:10:23;;;;;;;5.10;3.63;;;;;;;1.96;94.43;98683.56;10500333;28;20064;-71
2022/01/09 17:15:25;;;;;;;2.70;2.50;;;;;;;2.01;94.55;98690.38;10500252;28;20494;-72
2022/01/09 17:20:27;;;;;;;3.03;2.83;;;;;;;2.02;94.14;98697.25;10499884;28;20049;-72
2022/01/09 17:25:28;;;;;;;3.13;2.92;;;;;;;2.22;93.30;98716.78;10499193;28;20097;-71
2022/01/09 17:30:30;;;;;;;4.53;3.40;;;;;;;2.20;94.05;98724.56;10499174;28;20494;-72
2022/01/09 17:35:32;;;;;;;4.07;3.78;;;;;;;2.14;94.63;98732.47;10481132;28;20048;-72
2022/01/09 17:40:34;;;;;;;4.57;4.18;;;;;;;2.26;94.42;98736.59;10498420;28;20040;-72
2022/01/09 17:45:36;;;;;;;5.32;4.93;;;;;;;2.13;95.46;98754.09;10499990;28;20044;-72
2022/01/09 17:50:37;;;;;;;4.93;4.43;;;;;;;2.11;95.81;98766.22;10498672;28;20040;-71
2022/01/09 17:55:40;;;;;;;5.30;4.90;;;;;;;2.17;96.17;98766.13;10480535;28;20048;-70
2022/01/09 18:00:42;;;;;;;6.47;5.88;;;;;;;2.20;95.83;98783.34;10481123;28;20040;-71
2022/01/09 18:05:43;;;;;;;6.80;6.10;;;;;;;2.25;96.57;98778.94;10497999;28;20407;-71
2022/01/09 18:10:45;;;;;;;6.28;5.78;;;;;;;2.08;96.67;98786.16;10513226;22;20497;-75
2022/01/09 18:15:47;;;;;;;5.78;5.28;;;;;;;2.28;96.34;98786.66;10511136;28;20405;-75
2022/01/09 18:20:49;;;;;;;6.25;5.65;;;;;;;2.27;95.43;98803.09;10513565;28;20044;-74
2022/01/09 18:25:51;;;;;;;6.10;5.55;;;;;;;2.21;95.68;98800.59;10514425;28;20584;-75
2022/01/09 18:30:53;;;;;;;6.35;5.75;;;;;;;2.20;95.92;98812.72;10516865;28;20048;-74
2022/01/09 18:35:54;;;;;;;6.22;5.72;;;;;;;2.33;95.42;98813.34;10516377;28;20044;-74
2022/01/09 18:40:59;;;;;;;5.10;4.70;;;;;;;2.24;95.63;98823.91;10516821;28;20070;-75
2022/01/09 18:46:01;;;;;;;20.73;4.03;;;;;;;2.31;93.80;98832.44;10515301;28;20041;-75
2022/01/09 18:51:03;;;;;;;3.20;3.00;;;;;;;2.26;93.62;98845.47;10513800;28;20063;-74
2022/01/09 18:56:04;;;;;;;2.85;2.65;;;;;;;2.24;92.94;98847.22;10514124;28;20044;-75
2022/01/09 19:01:06;;;;;;;3.10;2.90;;;;;;;2.13;93.76;98851.75;10514939;28;20040;-75
2022/01/09 19:06:08;;;;;;;4.18;3.10;;;;;;;2.08;93.93;98867.38;10514817;28;20036;-74
2022/01/09 19:11:12;;;;;;;3.50;3.20;;;;;;;2.07;93.96;98870.84;10514534;28;20547;-75
2022/01/09 19:16:15;;;;;;;3.42;3.03;;;;;;;2.09;93.59;98871.69;10553645;28;20114;-75
2022/01/09 19:21:17;;;;;;;3.30;3.10;;;;;;;2.08;93.89;98872.56;10555177;28;20036;-75
2022/01/09 19:26:19;;;;;;;3.25;2.95;;;;;;;2.20;93.75;98880.13;10528020;28;20064;-75
2022/01/09 19:31:22;;;;;;;3.60;3.30;;;;;;;2.11;94.13;98882.00;10533728;28;20048;-74
2022/01/09 19:36:25;;;;;;;3.58;3.28;;;;;;;2.20;93.10;98897.41;10512055;28;20048;-75
2022/01/09 19:41:27;;;;;;;4.13;3.83;;;;;;;2.26;92.08;98903.38;10510306;28;20051;-75
2022/01/09 19:46:30;;;;;;;3.38;3.10;;;;;;;2.17;92.46;98913.91;10508396;28;20127;-76
2022/01/09 19:51:33;;;;;;;4.25;3.85;;;;;;;2.30;91.78;98919.72;10490602;28;20052;-75
2022/01/09 19:56:35;;;;;;;3.92;3.45;;;;;;;2.30;92.32;98926.63;10508333;28;20044;-76
2022/01/09 20:01:38;;;;;;;3.92;3.20;;;;;;;2.30;91.93;98935.28;10506801;28;20471;-75
2022/01/09 20:06:42;;;;;;;4.43;4.03;;;;;;;2.27;92.44;98937.94;10507796;28;20049;-76
2022/01/09 20:11:47;;;;;;;4.70;4.30;;;;;;;2.33;91.76;98942.16;10507909;28;20063;-75
2022/01/09 20:16:49;;;;;;;4.72;3.80;;;;;;;2.35;92.12;98951.63;10507118;28;20067;-75
2022/01/09 20:21:52;;;;;;;5.05;4.55;;;;;;;2.30;92.33;98961.22;10506362;28;20045;-76
2022/01/09 20:26:56;;;;;;;4.50;4.15;;;;;;;2.31;92.17;98967.28;10507354;28;20040;-76
2022/01/09 20:31:58;;;;;;;6.20;5.60;;;;;;;2.42;91.56;98980.91;10505425;28;20044;-76
2022/01/09 20:37:00;;;;;;;4.93;4.40;;;;;;;2.40;91.65;98985.28;10507038;28;20059;-75
2022/01/09 20:42:02;;;;;;;6.38;5.07;;;;;;;2.40;92.09;98995.66;10506671;28;20048;-74
2022/01/09 20:47:06;;;;;;;5.88;5.25;;;;;;;2.31;92.90;99006.16;10506764;28;20048;-75
2022/01/09 20:52:09;;;;;;;6.40;5.15;;;;;;;2.37;92.82;99006.91;10488570;28;20044;-77
2022/01/09 20:57:11;;;;;;;6.00;5.40;;;;;;;2.39;92.68;99020.75;10504079;28;20044;-75
2022/01/09 21:02:16;;;;;;;6.18;4.95;;;;;;;2.46;91.96;99024.94;10502060;28;20394;-75
2022/01/09 21:07:18;;;;;;;6.95;5.53;;;;;;;2.30;92.90;99033.81;10501382;28;20516;-74
2022/01/09 21:12:19;;;;;;;9.63;5.60;;;;;;;2.25;92.85;99046.84;10502740;28;20051;-74
2022/01/09 21:17:21;;;;;;;5.53;4.72;;;;;;;2.42;91.87;99056.13;10503065;28;20063;-75
2022/01/09 21:22:23;;;;;;;6.25;5.65;;;;;;;2.29;92.31;99055.44;10502822;28;20059;-75
2022/01/09 21:27:25;;;;;;;6.53;5.60;;;;;;;2.29;92.82;99063.22;10502060;28;20097;-75
2022/01/09 21:32:26;;;;;;;6.63;5.85;;;;;;;2.24;93.05;99068.47;10502724;28;20127;-75
2022/01/09 21:37:29;;;;;;;7.68;5.85;;;;;;;2.29;93.11;99078.78;10501959;28;20044;-75
2022/01/09 21:42:30;;;;;;;7.05;6.05;;;;;;;2.33;92.89;99080.47;10502448;28;20048;-75
2022/01/09 21:47:32;;;;;;;7.25;5.82;;;;;;;2.29;93.43;99076.19;10502628;28;20045;-75
2022/01/09 21:52:34;;;;;;;11.32;6.72;;;;;;;2.34;93.35;99087.34;10501270;28;20082;-75
2022/01/09 21:57:36;;;;;;;7.53;5.88;;;;;;;2.35;93.25;99094.28;10502191;28;20102;-75
2022/01/09 22:02:38;;;;;;;7.60;6.72;;;;;;;2.26;93.64;99112.56;10501793;28;20049;-74
2022/01/09 22:07:40;;;;;;;7.82;6.20;;;;;;;2.50;92.62;99113.94;10502224;28;20063;-75
2022/01/09 22:12:42;;;;;;;8.10;6.45;;;;;;;2.55;92.37;99122.53;10501977;28;20088;-76
2022/01/09 22:17:43;;;;;;;8.23;7.43;;;;;;;2.43;93.12;99136.50;10501351;28;20052;-75
2022/01/09 22:22:45;;;;;;;8.07;7.28;;;;;;;2.46;92.94;99140.81;10501214;28;20547;-75
2022/01/09 22:27:47;;;;;;;8.43;6.75;;;;;;;2.59;91.93;99136.31;10500543;28;20052;-75
2022/01/09 22:32:49;;;;;;;10.18;6.47;;;;;;;2.61;91.28;99145.81;10501087;28;20383;-75
2022/01/09 22:37:50;;;;;;;10.95;7.50;;;;;;;2.40;92.49;99149.53;10498007;28;20486;-75
2022/01/09 22:42:54;;;;;;;9.93;6.75;;;;;;;2.55;91.55;99164.03;10499888;28;20044;-75
2022/01/09 22:47:58;;;;;;;9.07;6.47;;;;;;;2.54;91.67;99167.50;10499277;28;20131;-75
2022/01/09 22:53:01;;;;;;;7.15;6.22;;;;;;;2.58;91.53;99178.72;10499490;28;20052;-75
2022/01/09 22:58:04;;;;;;;8.45;6.43;;;;;;;2.65;90.40;99196.75;10497126;28;20387;-75
2022/01/09 23:03:06;;;;;;;7.30;5.63;;;;;;;2.67;89.50;99199.34;10503559;28;20091;-74
2022/01/09 23:08:08;;;;;;;8.57;6.18;;;;;;;2.65;89.92;99208.88;10505511;28;20040;-74
2022/01/09 23:13:10;;;;;;;9.05;6.57;;;;;;;2.59;90.07;99222.78;10505687;28;20395;-75
2022/01/09 23:18:12;;;;;;;8.45;6.50;;;;;;;2.53;90.15;99218.53;10507099;28;20411;-75
2022/01/09 23:23:13;;;;;;;6.88;6.28;;;;;;;2.58;89.77;99231.44;10504571;28;20063;-75
2022/01/09 23:28:15;;;;;;;7.20;6.43;;;;;;;2.63;90.13;99242.63;10505040;28;20094;-74
2022/01/09 23:33:17;;;;;;;7.25;6.55;;;;;;;2.52;90.85;99245.38;10504184;28;20040;-74
2022/01/09 23:38:19;;;;;;;7.20;6.47;;;;;;;2.58;90.87;99246.16;10504261;28;20075;-75
2022/01/09 23:43:21;;;;;;;8.40;6.43;;;;;;;2.53;91.39;99247.06;10504728;28;20038;-75
2022/01/09 23:48:27;;;;;;;7.70;5.65;;;;;;;2.61;91.09;99254.78;10503001;28;20045;-74
2022/01/09 23:53:29;;;;;;;6.93;6.32;;;;;;;2.61;91.17;99257.38;10504844;28;20111;-75